sensor_id;sensor_type;location;lat;lon;timestamp;pressure;altitude;pressure_sealevel;temperature;humidity
59487;BME280;45298;54.918;73.504;2023-05-25T00:01:14;100851.41;;;12.39;65.99
59487;BME280;45298;54.918;73.504;2023-05-25T00:03:43;100828.84;;;12.31;65.26
59487;BME280;45298;54.918;73.504;2023-05-25T00:06:13;100826.69;;;12.37;64.77
59487;BME280;45298;54.918;73.504;2023-05-25T00:08:42;100817.00;;;12.36;65.25
59487;BME280;45298;54.918;73.504;2023-05-25T00:11:13;100810.72;;;12.37;66.08
59487;BME280;45298;54.918;73.504;2023-05-25T00:13:44;100806.25;;;12.38;66.30
59487;BME280;45298;54.918;73.504;2023-05-25T00:16:13;100825.31;;;12.46;63.85
59487;BME280;45298;54.918;73.504;2023-05-25T00:18:42;100832.66;;;12.57;64.15
59487;BME280;45298;54.918;73.504;2023-05-25T00:21:11;100767.41;;;12.19;64.12
59487;BME280;45298;54.918;73.504;2023-05-25T00:23:42;100801.25;;;12.48;63.04
59487;BME280;45298;54.918;73.504;2023-05-25T00:26:11;100807.94;;;12.55;64.48
59487;BME280;45298;54.918;73.504;2023-05-25T00:28:39;100818.06;;;12.64;64.99
59487;BME280;45298;54.918;73.504;2023-05-25T00:31:08;100825.59;;;12.72;64.46
59487;BME280;45298;54.918;73.504;2023-05-25T00:33:37;100790.47;;;12.65;63.58
59487;BME280;45298;54.918;73.504;2023-05-25T00:36:06;100780.81;;;12.64;64.00
59487;BME280;45298;54.918;73.504;2023-05-25T00:38:36;100812.16;;;12.90;62.44
59487;BME280;45298;54.918;73.504;2023-05-25T00:41:05;100788.97;;;12.92;64.41
59487;BME280;45298;54.918;73.504;2023-05-25T00:43:34;100800.38;;;13.08;62.36
59487;BME280;45298;54.918;73.504;2023-05-25T00:46:03;100779.16;;;13.07;61.97
59487;BME280;45298;54.918;73.504;2023-05-25T00:48:32;100786.31;;;13.21;60.79
59487;BME280;45298;54.918;73.504;2023-05-25T00:51:01;100787.19;;;13.36;59.81
59487;BME280;45298;54.918;73.504;2023-05-25T00:53:30;100784.72;;;13.47;59.27
59487;BME280;45298;54.918;73.504;2023-05-25T00:56:25;100787.28;;;13.63;60.81
59487;BME280;45298;54.918;73.504;2023-05-25T00:58:59;100767.31;;;13.70;59.46
59487;BME280;45298;54.918;73.504;2023-05-25T01:01:32;100770.69;;;13.87;57.97
59487;BME280;45298;54.918;73.504;2023-05-25T01:04:08;100769.59;;;14.04;57.83
59487;BME280;45298;54.918;73.504;2023-05-25T01:06:38;100774.47;;;14.25;55.74
59487;BME280;45298;54.918;73.504;2023-05-25T01:09:12;100763.97;;;14.36;56.29
59487;BME280;45298;54.918;73.504;2023-05-25T01:11:48;100765.16;;;14.45;55.52
59487;BME280;45298;54.918;73.504;2023-05-25T01:14:19;100761.22;;;14.50;55.96
59487;BME280;45298;54.918;73.504;2023-05-25T01:16:52;100773.50;;;14.66;54.86
59487;BME280;45298;54.918;73.504;2023-05-25T01:19:24;100769.84;;;14.69;54.80
59487;BME280;45298;54.918;73.504;2023-05-25T01:22:20;100769.88;;;14.67;53.42
59487;BME280;45298;54.918;73.504;2023-05-25T01:25:00;100754.31;;;14.61;53.25
59487;BME280;45298;54.918;73.504;2023-05-25T01:27:42;100744.03;;;14.55;53.91
59487;BME280;45298;54.918;73.504;2023-05-25T01:30:15;100742.88;;;14.59;54.85
59487;BME280;45298;54.918;73.504;2023-05-25T01:32:44;100675.97;;;14.22;54.05
59487;BME280;45298;54.918;73.504;2023-05-25T01:35:14;100731.44;;;14.57;53.58
59487;BME280;45298;54.918;73.504;2023-05-25T01:37:45;100742.00;;;14.58;53.18
59487;BME280;45298;54.918;73.504;2023-05-25T01:40:15;100746.81;;;14.66;51.79
59487;BME280;45298;54.918;73.504;2023-05-25T01:42:44;100711.38;;;14.51;52.31
59487;BME280;45298;54.918;73.504;2023-05-25T01:45:13;100733.91;;;14.60;52.63
59487;BME280;45298;54.918;73.504;2023-05-25T01:53:18;100710.53;;;14.63;52.81
59487;BME280;45298;54.918;73.504;2023-05-25T01:55:58;100697.31;;;14.75;52.51
59487;BME280;45298;54.918;73.504;2023-05-25T01:58:35;100669.84;;;14.73;52.64
59487;BME280;45298;54.918;73.504;2023-05-25T02:01:09;100725.94;;;15.24;53.70
59487;BME280;45298;54.918;73.504;2023-05-25T02:03:40;100731.34;;;15.36;53.55
59487;BME280;45298;54.918;73.504;2023-05-25T02:06:11;100714.53;;;15.47;52.54
59487;BME280;45298;54.918;73.504;2023-05-25T02:08:41;100715.34;;;15.60;52.29
59487;BME280;45298;54.918;73.504;2023-05-25T02:11:12;100709.56;;;15.66;52.81
59487;BME280;45298;54.918;73.504;2023-05-25T02:13:42;100693.19;;;15.71;51.88
59487;BME280;45298;54.918;73.504;2023-05-25T02:16:11;100701.38;;;15.81;52.18
59487;BME280;45298;54.918;73.504;2023-05-25T02:18:44;100701.94;;;15.86;52.65
59487;BME280;45298;54.918;73.504;2023-05-25T02:21:14;100695.28;;;15.92;52.40
59487;BME280;45298;54.918;73.504;2023-05-25T02:23:44;100724.66;;;16.05;52.64
59487;BME280;45298;54.918;73.504;2023-05-25T02:26:13;100711.78;;;16.10;52.37
59487;BME280;45298;54.918;73.504;2023-05-25T02:28:44;100694.84;;;16.09;53.03
59487;BME280;45298;54.918;73.504;2023-05-25T02:31:13;100687.13;;;16.17;52.35
59487;BME280;45298;54.918;73.504;2023-05-25T02:33:42;100649.94;;;16.01;52.41
59487;BME280;45298;54.918;73.504;2023-05-25T02:36:11;100707.06;;;16.49;52.02
59487;BME280;45298;54.918;73.504;2023-05-25T02:38:41;100696.41;;;16.72;52.16
59487;BME280;45298;54.918;73.504;2023-05-25T02:41:09;100687.81;;;17.02;51.09
59487;BME280;45298;54.918;73.504;2023-05-25T02:43:38;100667.06;;;17.39;51.66
59487;BME280;45298;54.918;73.504;2023-05-25T02:46:09;100691.47;;;17.91;50.55
59487;BME280;45298;54.918;73.504;2023-05-25T02:48:38;100654.53;;;18.16;48.79
59487;BME280;45298;54.918;73.504;2023-05-25T02:51:07;100675.28;;;18.77;48.08
59487;BME280;45298;54.918;73.504;2023-05-25T02:53:36;100666.16;;;18.90;47.43
59487;BME280;45298;54.918;73.504;2023-05-25T02:56:05;100685.94;;;19.10;46.43
59487;BME280;45298;54.918;73.504;2023-05-25T02:58:35;100677.00;;;19.09;47.18
59487;BME280;45298;54.918;73.504;2023-05-25T03:01:08;100672.06;;;19.05;47.56
59487;BME280;45298;54.918;73.504;2023-05-25T03:03:44;100680.88;;;19.16;47.55
59487;BME280;45298;54.918;73.504;2023-05-25T03:06:13;100665.28;;;19.10;47.11
59487;BME280;45298;54.918;73.504;2023-05-25T03:08:44;100663.25;;;19.02;46.97
59487;BME280;45298;54.918;73.504;2023-05-25T03:11:16;100674.22;;;19.11;47.41
59487;BME280;45298;54.918;73.504;2023-05-25T03:13:46;100674.31;;;19.09;47.83
59487;BME280;45298;54.918;73.504;2023-05-25T03:16:16;100656.63;;;19.07;48.09
59487;BME280;45298;54.918;73.504;2023-05-25T03:18:45;100649.41;;;19.07;47.74
59487;BME280;45298;54.918;73.504;2023-05-25T03:21:16;100671.41;;;19.22;48.58
59487;BME280;45298;54.918;73.504;2023-05-25T03:23:45;100684.88;;;19.32;47.67
59487;BME280;45298;54.918;73.504;2023-05-25T03:26:14;100696.66;;;19.41;46.81
59487;BME280;45298;54.918;73.504;2023-05-25T03:28:47;100698.06;;;19.35;46.42
59487;BME280;45298;54.918;73.504;2023-05-25T03:31:16;100714.34;;;19.43;46.30
59487;BME280;45298;54.918;73.504;2023-05-25T03:33:45;100709.84;;;19.44;46.08
59487;BME280;45298;54.918;73.504;2023-05-25T03:36:17;100686.03;;;19.29;46.21
59487;BME280;45298;54.918;73.504;2023-05-25T03:38:47;100719.44;;;19.37;45.97
59487;BME280;45298;54.918;73.504;2023-05-25T03:41:16;100662.97;;;18.96;45.80
59487;BME280;45298;54.918;73.504;2023-05-25T03:43:45;100723.38;;;19.32;45.11
59487;BME280;45298;54.918;73.504;2023-05-25T03:46:14;100725.38;;;19.30;44.68
59487;BME280;45298;54.918;73.504;2023-05-25T03:48:46;100718.00;;;19.32;43.80
59487;BME280;45298;54.918;73.504;2023-05-25T03:51:15;100729.34;;;19.36;43.48
59487;BME280;45298;54.918;73.504;2023-05-25T03:53:44;100711.78;;;19.32;43.15
59487;BME280;45298;54.918;73.504;2023-05-25T03:56:13;100691.06;;;19.23;42.61
59487;BME280;45298;54.918;73.504;2023-05-25T03:58:43;100705.72;;;19.40;43.13
59487;BME280;45298;54.918;73.504;2023-05-25T04:01:14;100708.59;;;19.48;42.26
59487;BME280;45298;54.918;73.504;2023-05-25T04:03:44;100662.19;;;19.25;42.67
59487;BME280;45298;54.918;73.504;2023-05-25T04:06:13;100650.78;;;19.42;43.43
59487;BME280;45298;54.918;73.504;2023-05-25T04:08:48;100701.47;;;19.98;42.55
59487;BME280;45298;54.918;73.504;2023-05-25T04:11:18;100678.50;;;19.93;42.40
59487;BME280;45298;54.918;73.504;2023-05-25T04:13:48;100682.78;;;20.06;42.25
59487;BME280;45298;54.918;73.504;2023-05-25T04:16:17;100681.91;;;20.05;42.79
59487;BME280;45298;54.918;73.504;2023-05-25T04:18:46;100657.66;;;19.96;43.19
59487;BME280;45298;54.918;73.504;2023-05-25T04:21:15;100661.94;;;19.88;43.41
59487;BME280;45298;54.918;73.504;2023-05-25T04:23:45;100658.78;;;19.83;43.68
59487;BME280;45298;54.918;73.504;2023-05-25T04:26:14;100615.97;;;19.60;44.15
59487;BME280;45298;54.918;73.504;2023-05-25T04:28:45;100626.47;;;19.63;44.71
59487;BME280;45298;54.918;73.504;2023-05-25T04:31:33;100633.69;;;19.63;45.48
59487;BME280;45298;54.918;73.504;2023-05-25T04:34:21;100684.47;;;19.87;44.89
59487;BME280;45298;54.918;73.504;2023-05-25T04:37:01;100683.00;;;19.83;45.69
59487;BME280;45298;54.918;73.504;2023-05-25T04:39:32;100677.47;;;19.75;45.62
59487;BME280;45298;54.918;73.504;2023-05-25T04:42:03;100680.41;;;19.62;45.88
59487;BME280;45298;54.918;73.504;2023-05-25T04:44:33;100663.84;;;19.47;46.37
59487;BME280;45298;54.918;73.504;2023-05-25T04:47:05;100679.53;;;19.42;46.79
59487;BME280;45298;54.918;73.504;2023-05-25T04:49:35;100676.25;;;19.28;48.06
59487;BME280;45298;54.918;73.504;2023-05-25T04:52:04;100639.50;;;18.98;50.13
59487;BME280;45298;54.918;73.504;2023-05-25T04:54:34;100604.69;;;18.75;51.72
59487;BME280;45298;54.918;73.504;2023-05-25T04:57:03;100609.56;;;18.60;53.17
59487;BME280;45298;54.918;73.504;2023-05-25T04:59:32;100588.25;;;18.37;53.95
59487;BME280;45298;54.918;73.504;2023-05-25T05:02:03;100597.44;;;18.35;56.82
59487;BME280;45298;54.918;73.504;2023-05-25T05:04:32;100580.03;;;18.29;58.24
59487;BME280;45298;54.918;73.504;2023-05-25T05:07:02;100566.19;;;18.34;60.92
59487;BME280;45298;54.918;73.504;2023-05-25T05:09:31;100587.00;;;18.41;61.39
59487;BME280;45298;54.918;73.504;2023-05-25T05:12:01;100593.16;;;18.53;61.02
59487;BME280;45298;54.918;73.504;2023-05-25T05:14:37;100566.69;;;18.49;62.47
59487;BME280;45298;54.918;73.504;2023-05-25T05:17:07;100569.63;;;18.46;62.22
59487;BME280;45298;54.918;73.504;2023-05-25T05:19:37;100583.22;;;18.54;63.21
59487;BME280;45298;54.918;73.504;2023-05-25T05:22:08;100572.50;;;18.54;63.69
59487;BME280;45298;54.918;73.504;2023-05-25T05:24:40;100564.28;;;18.46;65.47
59487;BME280;45298;54.918;73.504;2023-05-25T05:27:12;100573.88;;;18.48;66.00
59487;BME280;45298;54.918;73.504;2023-05-25T05:29:51;100581.88;;;18.60;64.83
59487;BME280;45298;54.918;73.504;2023-05-25T05:32:20;100510.50;;;18.36;64.08
59487;BME280;45298;54.918;73.504;2023-05-25T05:34:49;100538.97;;;18.79;62.78
59487;BME280;45298;54.918;73.504;2023-05-25T05:37:32;100555.72;;;19.02;64.20
59487;BME280;45298;54.918;73.504;2023-05-25T05:40:01;100566.53;;;19.22;64.44
59487;BME280;45298;54.918;73.504;2023-05-25T05:42:30;100563.13;;;19.20;61.62
59487;BME280;45298;54.918;73.504;2023-05-25T05:44:59;100562.13;;;19.11;59.65
59487;BME280;45298;54.918;73.504;2023-05-25T05:47:28;100568.47;;;19.10;57.90
59487;BME280;45298;54.918;73.504;2023-05-25T05:49:57;100559.84;;;19.07;59.82
59487;BME280;45298;54.918;73.504;2023-05-25T05:52:28;100521.16;;;18.88;59.23
59487;BME280;45298;54.918;73.504;2023-05-25T05:54:57;100561.56;;;19.17;60.91
59487;BME280;45298;54.918;73.504;2023-05-25T05:57:26;100575.59;;;19.41;63.04
59487;BME280;45298;54.918;73.504;2023-05-25T05:59:55;100559.75;;;19.47;62.48
59487;BME280;45298;54.918;73.504;2023-05-25T06:02:24;100561.00;;;19.83;62.15
59487;BME280;45298;54.918;73.504;2023-05-25T06:04:53;100565.13;;;20.16;59.22
59487;BME280;45298;54.918;73.504;2023-05-25T06:07:22;100505.31;;;20.13;57.93
59487;BME280;45298;54.918;73.504;2023-05-25T06:09:51;100540.91;;;20.54;59.54
59487;BME280;45298;54.918;73.504;2023-05-25T06:12:20;100551.19;;;20.68;57.28
59487;BME280;45298;54.918;73.504;2023-05-25T06:14:49;100538.56;;;20.79;56.22
59487;BME280;45298;54.918;73.504;2023-05-25T06:17:19;100546.38;;;21.00;56.90
59487;BME280;45298;54.918;73.504;2023-05-25T06:19:52;100546.00;;;21.13;55.46
59487;BME280;45298;54.918;73.504;2023-05-25T06:22:21;100550.97;;;21.36;55.18
59487;BME280;45298;54.918;73.504;2023-05-25T06:24:56;100542.78;;;21.46;54.16
59487;BME280;45298;54.918;73.504;2023-05-25T06:27:28;100544.25;;;21.58;54.06
59487;BME280;45298;54.918;73.504;2023-05-25T06:29:57;100528.97;;;21.49;52.74
59487;BME280;45298;54.918;73.504;2023-05-25T06:32:26;100525.19;;;21.59;54.60
59487;BME280;45298;54.918;73.504;2023-05-25T06:34:55;100523.91;;;21.82;53.69
59487;BME280;45298;54.918;73.504;2023-05-25T06:37:25;100544.66;;;22.08;53.95
59487;BME280;45298;54.918;73.504;2023-05-25T06:39:54;100553.19;;;22.21;52.27
59487;BME280;45298;54.918;73.504;2023-05-25T06:42:24;100533.72;;;22.17;51.50
59487;BME280;45298;54.918;73.504;2023-05-25T06:44:56;100522.59;;;22.12;51.00
59487;BME280;45298;54.918;73.504;2023-05-25T06:47:25;100537.13;;;22.19;50.63
59487;BME280;45298;54.918;73.504;2023-05-25T06:49:57;100529.72;;;22.22;49.37
59487;BME280;45298;54.918;73.504;2023-05-25T06:52:26;100551.88;;;22.25;49.07
59487;BME280;45298;54.918;73.504;2023-05-25T06:54:55;100539.72;;;22.03;49.46
59487;BME280;45298;54.918;73.504;2023-05-25T06:57:25;100524.38;;;22.03;50.02
59487;BME280;45298;54.918;73.504;2023-05-25T06:59:54;100517.31;;;22.11;49.94
59487;BME280;45298;54.918;73.504;2023-05-25T07:02:23;100534.13;;;22.23;49.17
59487;BME280;45298;54.918;73.504;2023-05-25T07:04:52;100532.91;;;22.17;48.13
59487;BME280;45298;54.918;73.504;2023-05-25T07:07:21;100548.41;;;22.15;48.90
59487;BME280;45298;54.918;73.504;2023-05-25T07:09:50;100530.41;;;21.97;48.68
59487;BME280;45298;54.918;73.504;2023-05-25T07:12:19;100537.19;;;22.01;48.58
59487;BME280;45298;54.918;73.504;2023-05-25T07:14:51;100475.78;;;21.59;49.01
59487;BME280;45298;54.918;73.504;2023-05-25T07:17:20;100529.22;;;21.73;48.97
59487;BME280;45298;54.918;73.504;2023-05-25T07:19:49;100521.38;;;21.62;49.74
59487;BME280;45298;54.918;73.504;2023-05-25T07:22:18;100522.44;;;21.51;50.08
59487;BME280;45298;54.918;73.504;2023-05-25T07:24:48;100526.22;;;21.40;50.55
59487;BME280;45298;54.918;73.504;2023-05-25T07:27:16;100515.41;;;21.22;51.14
59487;BME280;45298;54.918;73.504;2023-05-25T07:29:47;100511.84;;;21.04;52.30
59487;BME280;45298;54.918;73.504;2023-05-25T07:32:15;100523.69;;;20.93;52.90
59487;BME280;45298;54.918;73.504;2023-05-25T07:34:44;100528.63;;;20.69;53.60
59487;BME280;45298;54.918;73.504;2023-05-25T07:37:13;100454.59;;;20.08;54.26
59487;BME280;45298;54.918;73.504;2023-05-25T07:39:43;100529.47;;;20.42;54.72
59487;BME280;45298;54.918;73.504;2023-05-25T07:42:12;100553.72;;;20.42;55.84
59487;BME280;45298;54.918;73.504;2023-05-25T07:44:41;100497.28;;;20.03;56.25
59487;BME280;45298;54.918;73.504;2023-05-25T07:47:10;100544.16;;;20.20;55.93
59487;BME280;45298;54.918;73.504;2023-05-25T07:49:39;100533.72;;;19.97;55.91
59487;BME280;45298;54.918;73.504;2023-05-25T07:52:08;100559.31;;;20.01;55.80
59487;BME280;45298;54.918;73.504;2023-05-25T07:54:37;100549.28;;;19.93;55.46
59487;BME280;45298;54.918;73.504;2023-05-25T07:57:07;100551.81;;;19.85;56.20
59487;BME280;45298;54.918;73.504;2023-05-25T07:59:36;100538.09;;;19.69;56.18
59487;BME280;45298;54.918;73.504;2023-05-25T08:02:05;100546.31;;;19.67;56.13
59487;BME280;45298;54.918;73.504;2023-05-25T08:04:35;100541.78;;;19.68;56.24
59487;BME280;45298;54.918;73.504;2023-05-25T08:07:04;100546.72;;;19.72;56.02
59487;BME280;45298;54.918;73.504;2023-05-25T08:09:34;100533.53;;;19.79;55.74
59487;BME280;45298;54.918;73.504;2023-05-25T08:12:03;100517.84;;;19.74;55.28
59487;BME280;45298;54.918;73.504;2023-05-25T08:14:54;100516.84;;;19.85;55.67
59487;BME280;45298;54.918;73.504;2023-05-25T08:17:23;100524.75;;;20.06;55.87
59487;BME280;45298;54.918;73.504;2023-05-25T08:19:55;100531.34;;;20.22;54.51
59487;BME280;45298;54.918;73.504;2023-05-25T08:22:25;100514.06;;;20.25;53.38
59487;BME280;45298;54.918;73.504;2023-05-25T08:24:54;100501.59;;;20.23;53.61
59487;BME280;45298;54.918;73.504;2023-05-25T08:27:25;100505.50;;;20.39;53.46
59487;BME280;45298;54.918;73.504;2023-05-25T08:29:55;100518.97;;;20.39;52.98
59487;BME280;45298;54.918;73.504;2023-05-25T08:32:24;100493.34;;;20.25;53.67
59487;BME280;45298;54.918;73.504;2023-05-25T08:34:53;100507.50;;;20.37;53.25
59487;BME280;45298;54.918;73.504;2023-05-25T08:37:22;100491.53;;;20.26;53.82
59487;BME280;45298;54.918;73.504;2023-05-25T08:39:52;100499.81;;;20.42;54.22
59487;BME280;45298;54.918;73.504;2023-05-25T08:42:21;100499.56;;;20.35;54.03
59487;BME280;45298;54.918;73.504;2023-05-25T08:44:51;100498.72;;;20.35;53.67
59487;BME280;45298;54.918;73.504;2023-05-25T08:47:23;100448.59;;;20.14;54.26
59487;BME280;45298;54.918;73.504;2023-05-25T08:49:59;100482.78;;;20.42;53.79
59487;BME280;45298;54.918;73.504;2023-05-25T08:52:32;100480.84;;;20.34;54.18
59487;BME280;45298;54.918;73.504;2023-05-25T08:55:07;100510.31;;;20.45;54.72
59487;BME280;45298;54.918;73.504;2023-05-25T08:57:54;100501.81;;;20.40;54.46
59487;BME280;45298;54.918;73.504;2023-05-25T09:00:33;100496.72;;;20.37;54.66
59487;BME280;45298;54.918;73.504;2023-05-25T09:03:14;100442.97;;;20.07;55.21
59487;BME280;45298;54.918;73.504;2023-05-25T09:05:46;100490.09;;;20.31;55.82
59487;BME280;45298;54.918;73.504;2023-05-25T09:08:16;100487.56;;;20.30;56.13
59487;BME280;45298;54.918;73.504;2023-05-25T09:10:46;100492.63;;;20.33;56.73
59487;BME280;45298;54.918;73.504;2023-05-25T09:13:16;100432.25;;;19.98;56.76
59487;BME280;45298;54.918;73.504;2023-05-25T09:15:50;100476.66;;;20.21;56.91
59487;BME280;45298;54.918;73.504;2023-05-25T09:18:20;100497.41;;;20.39;56.47
59487;BME280;45298;54.918;73.504;2023-05-25T09:20:49;100476.31;;;20.34;55.90
59487;BME280;45298;54.918;73.504;2023-05-25T09:23:20;100474.13;;;20.48;55.58
59487;BME280;45298;54.918;73.504;2023-05-25T09:25:50;100474.47;;;20.63;55.78
59487;BME280;45298;54.918;73.504;2023-05-25T09:28:19;100483.03;;;20.86;56.10
59487;BME280;45298;54.918;73.504;2023-05-25T09:30:51;100483.06;;;21.04;55.50
59487;BME280;45298;54.918;73.504;2023-05-25T09:33:20;100471.31;;;21.13;56.08
59487;BME280;45298;54.918;73.504;2023-05-25T09:35:50;100459.22;;;21.18;55.68
59487;BME280;45298;54.918;73.504;2023-05-25T09:38:19;100473.25;;;21.39;55.28
59487;BME280;45298;54.918;73.504;2023-05-25T09:40:50;100472.16;;;21.50;55.13
59487;BME280;45298;54.918;73.504;2023-05-25T09:43:20;100473.38;;;21.74;55.24
59487;BME280;45298;54.918;73.504;2023-05-25T09:46:08;100458.66;;;21.95;55.06
59487;BME280;45298;54.918;73.504;2023-05-25T09:48:37;100483.28;;;22.26;54.12
59487;BME280;45298;54.918;73.504;2023-05-25T09:51:06;100484.13;;;22.53;52.95
59487;BME280;45298;54.918;73.504;2023-05-25T09:53:36;100477.75;;;22.62;52.89
59487;BME280;45298;54.918;73.504;2023-05-25T09:56:05;100474.09;;;22.80;53.08
59487;BME280;45298;54.918;73.504;2023-05-25T09:58:34;100461.75;;;22.86;51.44
59487;BME280;45298;54.918;73.504;2023-05-25T10:01:04;100462.94;;;22.91;51.83
59487;BME280;45298;54.918;73.504;2023-05-25T10:03:33;100469.56;;;22.89;51.15
59487;BME280;45298;54.918;73.504;2023-05-25T10:06:03;100475.78;;;22.89;50.76
59487;BME280;45298;54.918;73.504;2023-05-25T10:08:34;100457.03;;;22.96;51.64
59487;BME280;45298;54.918;73.504;2023-05-25T10:11:04;100457.09;;;23.13;50.92
59487;BME280;45298;54.918;73.504;2023-05-25T10:13:35;100445.44;;;23.29;50.60
59487;BME280;45298;54.918;73.504;2023-05-25T10:16:08;100450.66;;;23.55;50.82
59487;BME280;45298;54.918;73.504;2023-05-25T10:21:15;100432.38;;;23.57;49.17
59487;BME280;45298;54.918;73.504;2023-05-25T10:23:47;100445.97;;;23.32;49.84
59487;BME280;45298;54.918;73.504;2023-05-25T10:26:21;100424.06;;;22.92;50.45
59487;BME280;45298;54.918;73.504;2023-05-25T10:28:55;100432.53;;;22.81;51.13
59487;BME280;45298;54.918;73.504;2023-05-25T10:31:33;100435.69;;;22.76;51.95
59487;BME280;45298;54.918;73.504;2023-05-25T10:34:05;100412.72;;;22.72;51.48
59487;BME280;45298;54.918;73.504;2023-05-25T10:36:36;100408.50;;;22.86;51.14
59487;BME280;45298;54.918;73.504;2023-05-25T10:39:06;100406.00;;;22.93;49.33
59487;BME280;45298;54.918;73.504;2023-05-25T10:41:36;100403.81;;;22.97;49.39
59487;BME280;45298;54.918;73.504;2023-05-25T10:44:07;100389.91;;;22.75;48.88
59487;BME280;45298;54.918;73.504;2023-05-25T10:46:36;100407.78;;;22.59;48.58
59487;BME280;45298;54.918;73.504;2023-05-25T10:49:05;100406.34;;;22.39;48.92
59487;BME280;45298;54.918;73.504;2023-05-25T10:51:40;100430.63;;;22.30;49.26
59487;BME280;45298;54.918;73.504;2023-05-25T10:54:13;100413.47;;;22.05;49.90
59487;BME280;45298;54.918;73.504;2023-05-25T10:57:08;100416.47;;;21.94;49.16
59487;BME280;45298;54.918;73.504;2023-05-25T10:59:41;100371.09;;;21.44;47.44
59487;BME280;45298;54.918;73.504;2023-05-25T11:02:14;100405.50;;;21.42;45.53
59487;BME280;45298;54.918;73.504;2023-05-25T11:04:46;100410.59;;;21.27;43.42
59487;BME280;45298;54.918;73.504;2023-05-25T11:07:16;100420.63;;;21.17;43.83
59487;BME280;45298;54.918;73.504;2023-05-25T11:09:57;100428.41;;;21.02;45.00
59487;BME280;45298;54.918;73.504;2023-05-25T11:12:27;100444.88;;;20.81;48.22
59487;BME280;45298;54.918;73.504;2023-05-25T11:15:22;100465.31;;;20.28;54.48
59487;BME280;45298;54.918;73.504;2023-05-25T11:17:58;100437.38;;;19.71;55.94
59487;BME280;45298;54.918;73.504;2023-05-25T11:20:30;100454.72;;;19.49;58.52
59487;BME280;45298;54.918;73.504;2023-05-25T11:23:21;100466.47;;;19.28;60.91
59487;BME280;45298;54.918;73.504;2023-05-25T11:25:51;100451.34;;;19.08;61.93
59487;BME280;45298;54.918;73.504;2023-05-25T11:28:21;100445.75;;;18.80;60.78
59487;BME280;45298;54.918;73.504;2023-05-25T11:30:50;100447.13;;;18.64;60.24
59487;BME280;45298;54.918;73.504;2023-05-25T11:33:20;100446.69;;;18.59;60.92
59487;BME280;45298;54.918;73.504;2023-05-25T11:35:49;100423.44;;;18.38;60.77
59487;BME280;45298;54.918;73.504;2023-05-25T11:38:23;100420.63;;;18.30;61.09
59487;BME280;45298;54.918;73.504;2023-05-25T11:40:53;100419.72;;;18.20;61.00
59487;BME280;45298;54.918;73.504;2023-05-25T11:43:24;100427.06;;;18.18;61.96
59487;BME280;45298;54.918;73.504;2023-05-25T11:45:54;100434.81;;;18.11;63.14
59487;BME280;45298;54.918;73.504;2023-05-25T11:48:24;100457.25;;;18.10;62.21
59487;BME280;45298;54.918;73.504;2023-05-25T11:51:06;100437.63;;;17.88;64.13
59487;BME280;45298;54.918;73.504;2023-05-25T11:53:41;100455.31;;;17.91;64.03
59487;BME280;45298;54.918;73.504;2023-05-25T11:56:13;100440.50;;;17.75;63.96
59487;BME280;45298;54.918;73.504;2023-05-25T11:59:00;100444.38;;;17.82;64.00
59487;BME280;45298;54.918;73.504;2023-05-25T12:01:29;100461.78;;;17.88;62.97
59487;BME280;45298;54.918;73.504;2023-05-25T12:04:07;100455.50;;;17.78;62.79
59487;BME280;45298;54.918;73.504;2023-05-25T12:06:37;100486.25;;;17.95;64.93
59487;BME280;45298;54.918;73.504;2023-05-25T12:09:19;100485.75;;;18.01;62.38
59487;BME280;45298;54.918;73.504;2023-05-25T12:11:51;100487.72;;;17.99;62.79
59487;BME280;45298;54.918;73.504;2023-05-25T12:14:21;100492.81;;;18.02;61.84
59487;BME280;45298;54.918;73.504;2023-05-25T12:16:51;100507.16;;;18.12;61.62
59487;BME280;45298;54.918;73.504;2023-05-25T12:19:21;100496.81;;;18.08;63.18
59487;BME280;45298;54.918;73.504;2023-05-25T12:21:50;100494.53;;;18.03;58.41
59487;BME280;45298;54.918;73.504;2023-05-25T12:24:19;100498.69;;;17.96;57.12
59487;BME280;45298;54.918;73.504;2023-05-25T12:26:49;100492.09;;;18.00;52.92
59487;BME280;45298;54.918;73.504;2023-05-25T12:29:24;100507.28;;;18.11;50.96
59487;BME280;45298;54.918;73.504;2023-05-25T12:32:05;100522.00;;;18.17;49.83
59487;BME280;45298;54.918;73.504;2023-05-25T12:34:34;100536.41;;;18.16;47.69
59487;BME280;45298;54.918;73.504;2023-05-25T12:37:04;100516.72;;;18.05;49.00
59487;BME280;45298;54.918;73.504;2023-05-25T12:39:34;100542.63;;;18.16;48.66
59487;BME280;45298;54.918;73.504;2023-05-25T12:42:12;100522.22;;;18.04;48.57
59487;BME280;45298;54.918;73.504;2023-05-25T12:44:44;100527.84;;;18.01;48.96
59487;BME280;45298;54.918;73.504;2023-05-25T12:49:45;100555.31;;;17.93;46.58
59487;BME280;45298;54.918;73.504;2023-05-25T12:52:32;100555.94;;;17.85;46.26
59487;BME280;45298;54.918;73.504;2023-05-25T12:55:24;100548.03;;;17.62;46.99
59487;BME280;45298;54.918;73.504;2023-05-25T13:02:59;100549.44;;;17.45;45.71
59487;BME280;45298;54.918;73.504;2023-05-25T13:05:31;100583.16;;;17.59;46.08
59487;BME280;45298;54.918;73.504;2023-05-25T13:08:02;100560.75;;;17.49;45.59
59487;BME280;45298;54.918;73.504;2023-05-25T13:10:32;100590.94;;;17.62;44.76
59487;BME280;45298;54.918;73.504;2023-05-25T13:13:01;100567.47;;;17.55;45.88
59487;BME280;45298;54.918;73.504;2023-05-25T13:15:31;100542.38;;;17.44;45.94
59487;BME280;45298;54.918;73.504;2023-05-25T13:18:00;100580.09;;;17.64;45.10